sensor_id;sensor_type;location;lat;lon;timestamp;P1;durP1;ratioP1;P2;durP2;ratioP2
76171;SDS011;64929;51.178;4.138;2024-01-15T00:01:16;10.80;;;4.32;;
76171;SDS011;64929;51.178;4.138;2024-01-15T00:03:42;10.77;;;4.28;;
76171;SDS011;64929;51.178;4.138;2024-01-15T00:06:08;8.48;;;4.00;;
76171;SDS011;64929;51.178;4.138;2024-01-15T00:08:34;7.25;;;3.80;;
76171;SDS011;64929;51.178;4.138;2024-01-15T00:10:59;5.53;;;3.20;;
76171;SDS011;64929;51.178;4.138;2024-01-15T00:13:25;6.80;;;2.88;;
76171;SDS011;64929;51.178;4.138;2024-01-15T00:15:51;7.53;;;2.72;;
76171;SDS011;64929;51.178;4.138;2024-01-15T00:18:16;4.75;;;1.20;;
76171;SDS011;64929;51.178;4.138;2024-01-15T00:20:42;6.22;;;0.88;;
76171;SDS011;64929;51.178;4.138;2024-01-15T00:23:08;5.38;;;1.25;;
76171;SDS011;64929;51.178;4.138;2024-01-15T00:25:33;2.03;;;0.75;;
76171;SDS011;64929;51.178;4.138;2024-01-15T00:27:59;3.78;;;0.77;;
76171;SDS011;64929;51.178;4.138;2024-01-15T00:30:25;4.50;;;0.90;;
76171;SDS011;64929;51.178;4.138;2024-01-15T00:32:51;2.20;;;0.80;;
76171;SDS011;64929;51.178;4.138;2024-01-15T00:35:17;2.92;;;1.00;;
76171;SDS011;64929;51.178;4.138;2024-01-15T00:37:43;6.45;;;1.10;;
76171;SDS011;64929;51.178;4.138;2024-01-15T00:40:08;2.40;;;0.90;;
76171;SDS011;64929;51.178;4.138;2024-01-15T00:42:34;1.65;;;1.20;;
76171;SDS011;64929;51.178;4.138;2024-01-15T00:45:00;3.33;;;0.82;;
76171;SDS011;64929;51.178;4.138;2024-01-15T00:47:26;3.70;;;1.35;;
76171;SDS011;64929;51.178;4.138;2024-01-15T00:49:51;4.28;;;1.20;;
76171;SDS011;64929;51.178;4.138;2024-01-15T00:52:17;2.92;;;0.73;;
76171;SDS011;64929;51.178;4.138;2024-01-15T00:54:44;5.68;;;0.88;;
76171;SDS011;64929;51.178;4.138;2024-01-15T00:57:09;4.38;;;0.60;;
76171;SDS011;64929;51.178;4.138;2024-01-15T00:59:35;5.22;;;0.95;;
76171;SDS011;64929;51.178;4.138;2024-01-15T01:02:01;1.73;;;0.70;;
76171;SDS011;64929;51.178;4.138;2024-01-15T01:04:27;4.32;;;0.90;;
76171;SDS011;64929;51.178;4.138;2024-01-15T01:06:53;9.68;;;1.33;;
76171;SDS011;64929;51.178;4.138;2024-01-15T01:09:18;4.80;;;1.38;;
76171;SDS011;64929;51.178;4.138;2024-01-15T01:11:44;3.33;;;1.05;;
76171;SDS011;64929;51.178;4.138;2024-01-15T01:14:10;6.00;;;1.05;;
76171;SDS011;64929;51.178;4.138;2024-01-15T01:16:35;3.50;;;1.05;;
76171;SDS011;64929;51.178;4.138;2024-01-15T01:19:04;4.40;;;1.10;;
76171;SDS011;64929;51.178;4.138;2024-01-15T01:21:31;7.63;;;1.20;;
76171;SDS011;64929;51.178;4.138;2024-01-15T01:23:57;8.27;;;1.13;;
76171;SDS011;64929;51.178;4.138;2024-01-15T01:26:22;7.30;;;1.17;;
76171;SDS011;64929;51.178;4.138;2024-01-15T01:28:48;4.20;;;0.70;;
76171;SDS011;64929;51.178;4.138;2024-01-15T01:31:14;4.65;;;0.50;;
76171;SDS011;64929;51.178;4.138;2024-01-15T01:33:41;0.55;;;0.50;;
76171;SDS011;64929;51.178;4.138;2024-01-15T01:36:09;4.70;;;0.80;;
76171;SDS011;64929;51.178;4.138;2024-01-15T01:38:35;5.55;;;0.90;;
76171;SDS011;64929;51.178;4.138;2024-01-15T01:41:02;7.13;;;0.73;;
76171;SDS011;64929;51.178;4.138;2024-01-15T01:43:28;6.77;;;0.80;;
76171;SDS011;64929;51.178;4.138;2024-01-15T01:45:54;5.53;;;0.70;;
76171;SDS011;64929;51.178;4.138;2024-01-15T01:48:23;2.67;;;0.55;;
76171;SDS011;64929;51.178;4.138;2024-01-15T01:50:51;4.77;;;0.70;;
76171;SDS011;64929;51.178;4.138;2024-01-15T01:53:22;5.10;;;0.43;;
76171;SDS011;64929;51.178;4.138;2024-01-15T01:55:49;3.83;;;0.47;;
76171;SDS011;64929;51.178;4.138;2024-01-15T01:58:15;2.23;;;0.30;;
76171;SDS011;64929;51.178;4.138;2024-01-15T02:00:42;2.42;;;0.43;;
76171;SDS011;64929;51.178;4.138;2024-01-15T02:03:08;6.40;;;0.60;;
76171;SDS011;64929;51.178;4.138;2024-01-15T02:05:35;2.50;;;0.50;;
76171;SDS011;64929;51.178;4.138;2024-01-15T02:08:01;3.88;;;0.75;;
76171;SDS011;64929;51.178;4.138;2024-01-15T02:10:27;2.88;;;0.60;;
76171;SDS011;64929;51.178;4.138;2024-01-15T02:12:52;6.43;;;1.20;;
76171;SDS011;64929;51.178;4.138;2024-01-15T02:15:18;5.88;;;1.48;;
76171;SDS011;64929;51.178;4.138;2024-01-15T02:18:00;7.30;;;1.10;;
76171;SDS011;64929;51.178;4.138;2024-01-15T02:20:27;7.10;;;1.40;;
76171;SDS011;64929;51.178;4.138;2024-01-15T02:22:53;6.40;;;0.60;;
76171;SDS011;64929;51.178;4.138;2024-01-15T02:25:19;7.45;;;0.95;;
76171;SDS011;64929;51.178;4.138;2024-01-15T02:27:45;5.47;;;1.10;;
76171;SDS011;64929;51.178;4.138;2024-01-15T02:30:12;4.57;;;0.70;;
76171;SDS011;64929;51.178;4.138;2024-01-15T02:32:38;3.92;;;0.80;;
76171;SDS011;64929;51.178;4.138;2024-01-15T02:35:04;10.27;;;1.02;;
76171;SDS011;64929;51.178;4.138;2024-01-15T02:37:30;3.58;;;0.90;;
76171;SDS011;64929;51.178;4.138;2024-01-15T02:39:55;2.60;;;0.75;;
76171;SDS011;64929;51.178;4.138;2024-01-15T02:42:21;8.93;;;1.15;;
76171;SDS011;64929;51.178;4.138;2024-01-15T02:44:47;4.60;;;0.90;;
76171;SDS011;64929;51.178;4.138;2024-01-15T02:47:13;4.32;;;0.70;;
76171;SDS011;64929;51.178;4.138;2024-01-15T02:49:39;2.25;;;0.40;;
76171;SDS011;64929;51.178;4.138;2024-01-15T02:52:05;1.08;;;0.50;;
76171;SDS011;64929;51.178;4.138;2024-01-15T02:54:31;4.70;;;0.70;;
76171;SDS011;64929;51.178;4.138;2024-01-15T02:56:57;4.30;;;0.57;;
76171;SDS011;64929;51.178;4.138;2024-01-15T02:59:22;3.00;;;0.90;;
76171;SDS011;64929;51.178;4.138;2024-01-15T03:01:48;6.47;;;0.98;;
76171;SDS011;64929;51.178;4.138;2024-01-15T03:04:14;3.85;;;0.70;;
76171;SDS011;64929;51.178;4.138;2024-01-15T03:06:39;10.70;;;1.55;;
76171;SDS011;64929;51.178;4.138;2024-01-15T03:09:05;7.00;;;1.00;;
76171;SDS011;64929;51.178;4.138;2024-01-15T03:11:36;3.10;;;0.63;;
76171;SDS011;64929;51.178;4.138;2024-01-15T03:14:05;5.13;;;1.00;;
76171;SDS011;64929;51.178;4.138;2024-01-15T03:16:31;6.35;;;1.10;;
76171;SDS011;64929;51.178;4.138;2024-01-15T03:18:56;6.78;;;0.80;;
76171;SDS011;64929;51.178;4.138;2024-01-15T03:21:22;1.75;;;0.73;;
76171;SDS011;64929;51.178;4.138;2024-01-15T03:23:48;7.88;;;2.55;;
76171;SDS011;64929;51.178;4.138;2024-01-15T03:26:13;4.60;;;1.00;;
76171;SDS011;64929;51.178;4.138;2024-01-15T03:28:39;4.15;;;1.15;;
76171;SDS011;64929;51.178;4.138;2024-01-15T03:31:05;3.40;;;1.60;;
76171;SDS011;64929;51.178;4.138;2024-01-15T03:33:30;4.55;;;1.60;;
76171;SDS011;64929;51.178;4.138;2024-01-15T03:35:56;4.72;;;1.48;;
76171;SDS011;64929;51.178;4.138;2024-01-15T03:38:22;7.22;;;1.88;;
76171;SDS011;64929;51.178;4.138;2024-01-15T03:40:48;6.53;;;1.90;;
76171;SDS011;64929;51.178;4.138;2024-01-15T03:43:14;4.88;;;1.63;;
76171;SDS011;64929;51.178;4.138;2024-01-15T03:45:39;7.05;;;2.00;;
76171;SDS011;64929;51.178;4.138;2024-01-15T03:48:05;6.60;;;2.38;;
76171;SDS011;64929;51.178;4.138;2024-01-15T03:50:31;5.97;;;2.28;;
76171;SDS011;64929;51.178;4.138;2024-01-15T03:52:57;5.63;;;2.53;;
76171;SDS011;64929;51.178;4.138;2024-01-15T03:55:22;5.50;;;2.47;;
76171;SDS011;64929;51.178;4.138;2024-01-15T03:57:48;7.40;;;2.97;;
76171;SDS011;64929;51.178;4.138;2024-01-15T04:00:14;3.87;;;2.80;;
76171;SDS011;64929;51.178;4.138;2024-01-15T04:02:42;7.40;;;2.87;;
76171;SDS011;64929;51.178;4.138;2024-01-15T04:05:09;4.33;;;2.70;;
76171;SDS011;64929;51.178;4.138;2024-01-15T04:07:35;8.73;;;2.78;;
76171;SDS011;64929;51.178;4.138;2024-01-15T04:10:00;6.38;;;2.67;;
76171;SDS011;64929;51.178;4.138;2024-01-15T04:12:26;5.57;;;2.97;;
76171;SDS011;64929;51.178;4.138;2024-01-15T04:14:52;9.05;;;2.80;;
76171;SDS011;64929;51.178;4.138;2024-01-15T04:17:17;4.75;;;2.55;;
76171;SDS011;64929;51.178;4.138;2024-01-15T04:19:43;5.80;;;2.60;;
76171;SDS011;64929;51.178;4.138;2024-01-15T04:22:09;5.30;;;2.40;;
76171;SDS011;64929;51.178;4.138;2024-01-15T04:24:35;9.60;;;2.73;;
76171;SDS011;64929;51.178;4.138;2024-01-15T04:27:01;6.50;;;2.73;;
76171;SDS011;64929;51.178;4.138;2024-01-15T04:29:26;7.73;;;2.97;;
76171;SDS011;64929;51.178;4.138;2024-01-15T04:31:52;6.07;;;2.63;;
76171;SDS011;64929;51.178;4.138;2024-01-15T04:34:18;4.50;;;2.83;;
76171;SDS011;64929;51.178;4.138;2024-01-15T04:36:44;6.70;;;3.00;;
76171;SDS011;64929;51.178;4.138;2024-01-15T04:39:10;5.20;;;2.90;;
76171;SDS011;64929;51.178;4.138;2024-01-15T04:41:36;11.50;;;2.90;;
76171;SDS011;64929;51.178;4.138;2024-01-15T04:44:02;8.57;;;3.50;;
76171;SDS011;64929;51.178;4.138;2024-01-15T04:46:28;9.27;;;3.30;;
76171;SDS011;64929;51.178;4.138;2024-01-15T04:48:54;7.17;;;3.20;;
76171;SDS011;64929;51.178;4.138;2024-01-15T04:51:19;10.17;;;3.20;;
76171;SDS011;64929;51.178;4.138;2024-01-15T04:53:45;7.80;;;3.30;;
76171;SDS011;64929;51.178;4.138;2024-01-15T04:56:11;10.63;;;3.50;;
76171;SDS011;64929;51.178;4.138;2024-01-15T04:58:36;11.97;;;3.30;;
76171;SDS011;64929;51.178;4.138;2024-01-15T05:01:02;11.50;;;3.57;;
76171;SDS011;64929;51.178;4.138;2024-01-15T05:03:28;6.70;;;2.70;;
76171;SDS011;64929;51.178;4.138;2024-01-15T05:05:54;11.33;;;3.10;;
76171;SDS011;64929;51.178;4.138;2024-01-15T05:08:20;5.73;;;2.87;;
76171;SDS011;64929;51.178;4.138;2024-01-15T05:10:46;7.03;;;2.73;;
76171;SDS011;64929;51.178;4.138;2024-01-15T05:13:12;7.77;;;2.57;;
76171;SDS011;64929;51.178;4.138;2024-01-15T05:15:38;8.37;;;2.60;;
76171;SDS011;64929;51.178;4.138;2024-01-15T05:18:04;8.80;;;2.93;;
76171;SDS011;64929;51.178;4.138;2024-01-15T05:20:30;7.83;;;2.87;;
76171;SDS011;64929;51.178;4.138;2024-01-15T05:22:56;8.17;;;3.10;;
76171;SDS011;64929;51.178;4.138;2024-01-15T05:25:21;7.70;;;2.87;;
76171;SDS011;64929;51.178;4.138;2024-01-15T05:27:47;4.40;;;2.10;;
76171;SDS011;64929;51.178;4.138;2024-01-15T05:30:13;7.13;;;2.20;;
76171;SDS011;64929;51.178;4.138;2024-01-15T05:32:39;5.33;;;2.30;;
76171;SDS011;64929;51.178;4.138;2024-01-15T05:35:05;5.83;;;2.47;;
76171;SDS011;64929;51.178;4.138;2024-01-15T05:37:31;7.10;;;2.93;;
76171;SDS011;64929;51.178;4.138;2024-01-15T05:39:57;6.63;;;2.43;;
76171;SDS011;64929;51.178;4.138;2024-01-15T05:42:22;6.00;;;1.90;;
76171;SDS011;64929;51.178;4.138;2024-01-15T05:44:48;4.37;;;1.93;;
76171;SDS011;64929;51.178;4.138;2024-01-15T05:47:14;10.60;;;2.60;;
76171;SDS011;64929;51.178;4.138;2024-01-15T05:49:40;8.73;;;2.10;;
76171;SDS011;64929;51.178;4.138;2024-01-15T05:52:05;5.60;;;2.40;;
76171;SDS011;64929;51.178;4.138;2024-01-15T05:54:31;7.07;;;2.10;;
76171;SDS011;64929;51.178;4.138;2024-01-15T05:56:57;3.57;;;1.80;;
76171;SDS011;64929;51.178;4.138;2024-01-15T05:59:23;7.67;;;2.20;;
76171;SDS011;64929;51.178;4.138;2024-01-15T06:01:48;4.40;;;1.77;;
76171;SDS011;64929;51.178;4.138;2024-01-15T06:04:14;5.53;;;1.87;;
76171;SDS011;64929;51.178;4.138;2024-01-15T06:06:40;10.30;;;2.20;;
76171;SDS011;64929;51.178;4.138;2024-01-15T06:09:05;10.33;;;3.20;;
76171;SDS011;64929;51.178;4.138;2024-01-15T06:11:31;4.80;;;1.57;;
76171;SDS011;64929;51.178;4.138;2024-01-15T06:13:57;6.17;;;1.50;;
76171;SDS011;64929;51.178;4.138;2024-01-15T06:16:23;4.17;;;1.83;;
76171;SDS011;64929;51.178;4.138;2024-01-15T06:18:49;9.30;;;1.90;;
76171;SDS011;64929;51.178;4.138;2024-01-15T06:21:15;6.20;;;2.07;;
76171;SDS011;64929;51.178;4.138;2024-01-15T06:23:41;7.00;;;1.60;;
76171;SDS011;64929;51.178;4.138;2024-01-15T06:26:07;5.93;;;1.40;;
76171;SDS011;64929;51.178;4.138;2024-01-15T06:28:33;6.80;;;1.80;;
76171;SDS011;64929;51.178;4.138;2024-01-15T06:30:58;6.77;;;1.60;;
76171;SDS011;64929;51.178;4.138;2024-01-15T06:33:24;7.23;;;1.67;;
76171;SDS011;64929;51.178;4.138;2024-01-15T06:35:50;5.57;;;1.90;;
76171;SDS011;64929;51.178;4.138;2024-01-15T06:38:16;6.40;;;1.60;;
76171;SDS011;64929;51.178;4.138;2024-01-15T06:40:42;7.23;;;1.50;;
76171;SDS011;64929;51.178;4.138;2024-01-15T06:43:13;7.33;;;1.30;;
76171;SDS011;64929;51.178;4.138;2024-01-15T06:45:40;9.88;;;1.60;;
76171;SDS011;64929;51.178;4.138;2024-01-15T06:48:05;8.47;;;1.50;;
76171;SDS011;64929;51.178;4.138;2024-01-15T06:50:32;11.00;;;1.33;;
76171;SDS011;64929;51.178;4.138;2024-01-15T06:52:58;4.60;;;1.20;;
76171;SDS011;64929;51.178;4.138;2024-01-15T06:55:24;7.90;;;1.33;;
76171;SDS011;64929;51.178;4.138;2024-01-15T06:57:50;5.40;;;0.97;;
76171;SDS011;64929;51.178;4.138;2024-01-15T07:00:16;2.43;;;1.50;;
76171;SDS011;64929;51.178;4.138;2024-01-15T07:02:43;2.80;;;1.27;;
76171;SDS011;64929;51.178;4.138;2024-01-15T07:05:08;5.23;;;0.93;;
76171;SDS011;64929;51.178;4.138;2024-01-15T07:07:34;5.30;;;1.00;;
76171;SDS011;64929;51.178;4.138;2024-01-15T07:10:00;4.63;;;0.77;;
76171;SDS011;64929;51.178;4.138;2024-01-15T07:12:27;4.33;;;1.23;;
76171;SDS011;64929;51.178;4.138;2024-01-15T07:14:53;7.33;;;0.97;;
76171;SDS011;64929;51.178;4.138;2024-01-15T07:17:20;3.93;;;0.90;;
76171;SDS011;64929;51.178;4.138;2024-01-15T07:19:45;2.67;;;1.07;;
76171;SDS011;64929;51.178;4.138;2024-01-15T07:22:11;6.60;;;0.97;;
76171;SDS011;64929;51.178;4.138;2024-01-15T07:24:37;5.83;;;1.00;;
76171;SDS011;64929;51.178;4.138;2024-01-15T07:27:03;1.97;;;1.10;;
76171;SDS011;64929;51.178;4.138;2024-01-15T07:29:30;3.30;;;0.80;;
76171;SDS011;64929;51.178;4.138;2024-01-15T07:31:58;7.93;;;1.00;;
76171;SDS011;64929;51.178;4.138;2024-01-15T07:34:23;2.77;;;0.80;;
76171;SDS011;64929;51.178;4.138;2024-01-15T07:36:49;6.60;;;1.17;;
76171;SDS011;64929;51.178;4.138;2024-01-15T07:39:15;10.03;;;1.00;;
76171;SDS011;64929;51.178;4.138;2024-01-15T07:41:41;4.93;;;1.67;;
76171;SDS011;64929;51.178;4.138;2024-01-15T07:44:06;5.97;;;1.27;;
76171;SDS011;64929;51.178;4.138;2024-01-15T07:46:32;4.67;;;0.80;;
76171;SDS011;64929;51.178;4.138;2024-01-15T07:48:58;3.33;;;0.93;;
76171;SDS011;64929;51.178;4.138;2024-01-15T07:51:24;2.43;;;0.73;;
76171;SDS011;64929;51.178;4.138;2024-01-15T07:53:52;4.07;;;0.73;;
76171;SDS011;64929;51.178;4.138;2024-01-15T07:56:19;6.90;;;0.93;;
76171;SDS011;64929;51.178;4.138;2024-01-15T07:58:46;3.17;;;0.60;;
76171;SDS011;64929;51.178;4.138;2024-01-15T08:01:12;6.77;;;1.20;;
76171;SDS011;64929;51.178;4.138;2024-01-15T08:03:38;4.10;;;0.75;;
76171;SDS011;64929;51.178;4.138;2024-01-15T08:06:04;5.75;;;0.90;;
76171;SDS011;64929;51.178;4.138;2024-01-15T08:08:30;7.47;;;1.10;;
76171;SDS011;64929;51.178;4.138;2024-01-15T08:10:56;4.87;;;0.80;;
76171;SDS011;64929;51.178;4.138;2024-01-15T08:13:22;5.90;;;0.80;;
76171;SDS011;64929;51.178;4.138;2024-01-15T08:15:48;4.97;;;0.93;;
76171;SDS011;64929;51.178;4.138;2024-01-15T08:18:15;4.03;;;0.90;;
76171;SDS011;64929;51.178;4.138;2024-01-15T08:20:41;4.27;;;0.90;;
76171;SDS011;64929;51.178;4.138;2024-01-15T08:23:07;4.17;;;1.07;;
76171;SDS011;64929;51.178;4.138;2024-01-15T08:25:33;3.43;;;1.03;;
76171;SDS011;64929;51.178;4.138;2024-01-15T08:27:59;3.63;;;1.00;;
76171;SDS011;64929;51.178;4.138;2024-01-15T08:30:25;2.23;;;1.20;;
76171;SDS011;64929;51.178;4.138;2024-01-15T08:32:53;8.63;;;1.90;;
76171;SDS011;64929;51.178;4.138;2024-01-15T08:35:19;3.20;;;0.70;;
76171;SDS011;64929;51.178;4.138;2024-01-15T08:37:53;3.03;;;0.83;;
76171;SDS011;64929;51.178;4.138;2024-01-15T08:40:19;7.93;;;1.10;;
76171;SDS011;64929;51.178;4.138;2024-01-15T08:42:45;4.73;;;0.87;;
76171;SDS011;64929;51.178;4.138;2024-01-15T08:45:10;8.23;;;1.20;;
76171;SDS011;64929;51.178;4.138;2024-01-15T08:47:36;4.67;;;1.30;;
76171;SDS011;64929;51.178;4.138;2024-01-15T08:50:03;6.20;;;1.10;;
76171;SDS011;64929;51.178;4.138;2024-01-15T08:52:34;3.90;;;0.93;;
76171;SDS011;64929;51.178;4.138;2024-01-15T08:55:00;6.60;;;1.10;;
76171;SDS011;64929;51.178;4.138;2024-01-15T08:57:26;5.27;;;1.03;;
76171;SDS011;64929;51.178;4.138;2024-01-15T08:59:51;5.80;;;0.97;;
76171;SDS011;64929;51.178;4.138;2024-01-15T09:02:17;3.80;;;0.90;;
76171;SDS011;64929;51.178;4.138;2024-01-15T09:04:43;4.10;;;0.80;;
76171;SDS011;64929;51.178;4.138;2024-01-15T09:07:08;2.88;;;0.90;;
76171;SDS011;64929;51.178;4.138;2024-01-15T09:09:35;5.50;;;1.08;;
76171;SDS011;64929;51.178;4.138;2024-01-15T09:12:01;9.88;;;1.95;;
76171;SDS011;64929;51.178;4.138;2024-01-15T09:14:27;4.30;;;0.80;;
76171;SDS011;64929;51.178;4.138;2024-01-15T09:16:54;6.18;;;1.17;;
76171;SDS011;64929;51.178;4.138;2024-01-15T09:19:19;6.32;;;1.05;;
76171;SDS011;64929;51.178;4.138;2024-01-15T09:21:45;5.50;;;1.10;;
76171;SDS011;64929;51.178;4.138;2024-01-15T09:24:11;12.67;;;1.87;;
76171;SDS011;64929;51.178;4.138;2024-01-15T09:26:36;5.57;;;0.93;;
76171;SDS011;64929;51.178;4.138;2024-01-15T09:29:02;3.60;;;1.02;;
76171;SDS011;64929;51.178;4.138;2024-01-15T09:31:28;5.73;;;1.60;;
76171;SDS011;64929;51.178;4.138;2024-01-15T09:33:54;4.30;;;1.65;;
76171;SDS011;64929;51.178;4.138;2024-01-15T09:36:24;6.72;;;0.90;;
76171;SDS011;64929;51.178;4.138;2024-01-15T09:38:50;10.10;;;1.30;;
76171;SDS011;64929;51.178;4.138;2024-01-15T09:41:16;7.70;;;1.08;;
76171;SDS011;64929;51.178;4.138;2024-01-15T09:43:42;6.57;;;1.20;;
76171;SDS011;64929;51.178;4.138;2024-01-15T09:46:09;7.22;;;0.98;;
76171;SDS011;64929;51.178;4.138;2024-01-15T09:48:36;9.13;;;1.15;;
76171;SDS011;64929;51.178;4.138;2024-01-15T09:51:03;6.25;;;1.10;;
76171;SDS011;64929;51.178;4.138;2024-01-15T09:53:31;3.38;;;1.35;;
76171;SDS011;64929;51.178;4.138;2024-01-15T09:55:58;5.30;;;0.80;;
76171;SDS011;64929;51.178;4.138;2024-01-15T09:58:25;8.18;;;0.95;;
76171;SDS011;64929;51.178;4.138;2024-01-15T10:00:51;5.05;;;0.77;;
76171;SDS011;64929;51.178;4.138;2024-01-15T10:03:18;8.98;;;2.35;;
76171;SDS011;64929;51.178;4.138;2024-01-15T10:05:43;4.43;;;1.10;;
76171;SDS011;64929;51.178;4.138;2024-01-15T10:08:09;4.80;;;0.70;;
76171;SDS011;64929;51.178;4.138;2024-01-15T10:10:36;4.63;;;1.03;;
76171;SDS011;64929;51.178;4.138;2024-01-15T10:13:03;5.22;;;1.38;;
76171;SDS011;64929;51.178;4.138;2024-01-15T10:15:30;10.90;;;1.10;;
76171;SDS011;64929;51.178;4.138;2024-01-15T10:17:59;7.80;;;0.88;;
76171;SDS011;64929;51.178;4.138;2024-01-15T10:20:25;2.58;;;0.93;;
76171;SDS011;64929;51.178;4.138;2024-01-15T10:22:51;5.27;;;1.07;;
76171;SDS011;64929;51.178;4.138;2024-01-15T10:25:17;7.90;;;0.77;;
76171;SDS011;64929;51.178;4.138;2024-01-15T10:27:52;5.43;;;1.10;;
76171;SDS011;64929;51.178;4.138;2024-01-15T10:30:28;4.57;;;1.02;;
76171;SDS011;64929;51.178;4.138;2024-01-15T10:33:00;4.70;;;0.80;;
76171;SDS011;64929;51.178;4.138;2024-01-15T10:35:29;3.47;;;0.57;;
76171;SDS011;64929;51.178;4.138;2024-01-15T10:37:55;4.27;;;0.90;;
76171;SDS011;64929;51.178;4.138;2024-01-15T10:40:21;6.13;;;1.10;;
76171;SDS011;64929;51.178;4.138;2024-01-15T10:42:47;5.70;;;0.93;;
76171;SDS011;64929;51.178;4.138;2024-01-15T10:45:15;2.73;;;0.67;;
76171;SDS011;64929;51.178;4.138;2024-01-15T10:47:42;4.75;;;1.40;;
76171;SDS011;64929;51.178;4.138;2024-01-15T10:50:08;5.40;;;0.77;;
76171;SDS011;64929;51.178;4.138;2024-01-15T10:52:35;2.72;;;0.60;;
76171;SDS011;64929;51.178;4.138;2024-01-15T10:55:02;4.63;;;0.65;;
76171;SDS011;64929;51.178;4.138;2024-01-15T10:57:31;2.75;;;0.95;;
76171;SDS011;64929;51.178;4.138;2024-01-15T10:59:57;7.45;;;1.20;;
76171;SDS011;64929;51.178;4.138;2024-01-15T11:02:24;5.57;;;0.50;;
76171;SDS011;64929;51.178;4.138;2024-01-15T11:04:51;5.17;;;0.90;;
76171;SDS011;64929;51.178;4.138;2024-01-15T11:07:16;3.40;;;0.70;;
76171;SDS011;64929;51.178;4.138;2024-01-15T11:09:46;2.85;;;0.50;;
76171;SDS011;64929;51.178;4.138;2024-01-15T11:12:15;6.63;;;0.75;;
76171;SDS011;64929;51.178;4.138;2024-01-15T11:14:45;7.45;;;1.50;;
76171;SDS011;64929;51.178;4.138;2024-01-15T11:17:12;7.78;;;1.13;;
76171;SDS011;64929;51.178;4.138;2024-01-15T11:19:43;4.80;;;0.90;;
76171;SDS011;64929;51.178;4.138;2024-01-15T11:25:17;6.80;;;0.80;;
76171;SDS011;64929;51.178;4.138;2024-01-15T11:30:17;4.05;;;0.95;;
76171;SDS011;64929;51.178;4.138;2024-01-15T11:32:45;7.72;;;1.13;;
76171;SDS011;64929;51.178;4.138;2024-01-15T11:35:12;6.15;;;1.27;;
76171;SDS011;64929;51.178;4.138;2024-01-15T11:40:17;4.60;;;0.50;;
76171;SDS011;64929;51.178;4.138;2024-01-15T11:42:44;4.97;;;0.82;;
76171;SDS011;64929;51.178;4.138;2024-01-15T11:45:10;3.75;;;1.35;;
76171;SDS011;64929;51.178;4.138;2024-01-15T11:47:44;5.40;;;0.95;;
76171;SDS011;64929;51.178;4.138;2024-01-15T11:50:41;2.60;;;0.70;;
76171;SDS011;64929;51.178;4.138;2024-01-15T11:56:06;6.07;;;1.25;;
76171;SDS011;64929;51.178;4.138;2024-01-15T11:58:44;5.15;;;0.68;;
76171;SDS011;64929;51.178;4.138;2024-01-15T12:01:12;7.65;;;1.02;;
76171;SDS011;64929;51.178;4.138;2024-01-15T12:03:38;8.15;;;1.20;;
76171;SDS011;64929;51.178;4.138;2024-01-15T12:06:08;6.88;;;1.00;;
76171;SDS011;64929;51.178;4.138;2024-01-15T12:08:35;7.60;;;0.90;;
76171;SDS011;64929;51.178;4.138;2024-01-15T12:11:01;4.38;;;0.80;;
76171;SDS011;64929;51.178;4.138;2024-01-15T12:13:38;5.10;;;0.88;;
76171;SDS011;64929;51.178;4.138;2024-01-15T12:16:04;9.53;;;1.67;;
76171;SDS011;64929;51.178;4.138;2024-01-15T12:18:30;1.80;;;0.63;;
76171;SDS011;64929;51.178;4.138;2024-01-15T12:20:56;3.57;;;0.87;;
76171;SDS011;64929;51.178;4.138;2024-01-15T12:23:24;4.57;;;1.03;;
76171;SDS011;64929;51.178;4.138;2024-01-15T12:25:49;5.83;;;1.00;;
76171;SDS011;64929;51.178;4.138;2024-01-15T12:28:16;7.93;;;1.20;;
76171;SDS011;64929;51.178;4.138;2024-01-15T12:30:41;3.55;;;1.05;;
76171;SDS011;64929;51.178;4.138;2024-01-15T12:33:07;2.03;;;0.30;;
76171;SDS011;64929;51.178;4.138;2024-01-15T12:35:33;0.60;;;0.30;;
76171;SDS011;64929;51.178;4.138;2024-01-15T12:38:00;0.70;;;0.40;;
76171;SDS011;64929;51.178;4.138;2024-01-15T12:40:29;1.75;;;0.30;;
76171;SDS011;64929;51.178;4.138;2024-01-15T12:42:55;1.37;;;0.20;;
76171;SDS011;64929;51.178;4.138;2024-01-15T12:45:21;2.13;;;0.30;;
76171;SDS011;64929;51.178;4.138;2024-01-15T12:47:47;1.15;;;0.30;;
76171;SDS011;64929;51.178;4.138;2024-01-15T12:50:13;2.92;;;0.50;;
76171;SDS011;64929;51.178;4.138;2024-01-15T12:52:42;4.35;;;1.08;;
76171;SDS011;64929;51.178;4.138;2024-01-15T12:55:08;1.27;;;0.35;;
76171;SDS011;64929;51.178;4.138;2024-01-15T12:57:36;0.70;;;0.30;;
76171;SDS011;64929;51.178;4.138;2024-01-15T13:00:02;1.88;;;0.25;;
76171;SDS011;64929;51.178;4.138;2024-01-15T13:02:36;2.78;;;0.63;;
76171;SDS011;64929;51.178;4.138;2024-01-15T13:05:03;2.55;;;0.60;;
76171;SDS011;64929;51.178;4.138;2024-01-15T13:07:29;1.67;;;0.73;;
76171;SDS011;64929;51.178;4.138;2024-01-15T13:09:55;1.08;;;0.20;;
76171;SDS011;64929;51.178;4.138;2024-01-15T13:12:20;0.73;;;0.30;;
76171;SDS011;64929;51.178;4.138;2024-01-15T13:14:47;1.00;;;0.30;;
76171;SDS011;64929;51.178;4.138;2024-01-15T13:17:13;0.30;;;0.20;;
76171;SDS011;64929;51.178;4.138;2024-01-15T13:19:42;0.45;;;0.45;;
76171;SDS011;64929;51.178;4.138;2024-01-15T13:22:07;1.23;;;0.43;;
76171;SDS011;64929;51.178;4.138;2024-01-15T13:24:34;3.13;;;0.20;;
76171;SDS011;64929;51.178;4.138;2024-01-15T13:27:03;2.80;;;0.30;;
76171;SDS011;64929;51.178;4.138;2024-01-15T13:29:29;0.30;;;0.20;;
76171;SDS011;64929;51.178;4.138;2024-01-15T13:31:55;0.52;;;0.30;;
76171;SDS011;64929;51.178;4.138;2024-01-15T13:34:21;1.73;;;0.22;;
76171;SDS011;64929;51.178;4.138;2024-01-15T13:36:47;0.95;;;0.30;;
76171;SDS011;64929;51.178;4.138;2024-01-15T13:39:13;1.67;;;0.47;;
76171;SDS011;64929;51.178;4.138;2024-01-15T13:41:38;4.05;;;0.57;;
76171;SDS011;64929;51.178;4.138;2024-01-15T13:44:04;0.82;;;0.20;;
76171;SDS011;64929;51.178;4.138;2024-01-15T13:46:30;0.55;;;0.30;;
76171;SDS011;64929;51.178;4.138;2024-01-15T13:48:56;4.32;;;0.60;;
76171;SDS011;64929;51.178;4.138;2024-01-15T13:51:22;2.93;;;0.73;;
76171;SDS011;64929;51.178;4.138;2024-01-15T13:53:48;2.93;;;0.70;;
76171;SDS011;64929;51.178;4.138;2024-01-15T13:56:14;2.47;;;0.80;;
76171;SDS011;64929;51.178;4.138;2024-01-15T13:58:40;5.83;;;0.83;;
76171;SDS011;64929;51.178;4.138;2024-01-15T14:01:06;7.63;;;1.37;;
76171;SDS011;64929;51.178;4.138;2024-01-15T14:03:34;2.30;;;1.40;;
76171;SDS011;64929;51.178;4.138;2024-01-15T14:06:00;5.70;;;0.90;;
76171;SDS011;64929;51.178;4.138;2024-01-15T14:08:28;7.27;;;1.00;;
76171;SDS011;64929;51.178;4.138;2024-01-15T14:10:54;2.87;;;0.90;;
76171;SDS011;64929;51.178;4.138;2024-01-15T14:13:22;2.93;;;1.10;;
76171;SDS011;64929;51.178;4.138;2024-01-15T14:15:47;4.10;;;1.30;;
76171;SDS011;64929;51.178;4.138;2024-01-15T14:18:15;8.47;;;1.33;;
76171;SDS011;64929;51.178;4.138;2024-01-15T14:20:41;2.33;;;1.13;;
76171;SDS011;64929;51.178;4.138;2024-01-15T14:23:07;5.67;;;0.67;;
76171;SDS011;64929;51.178;4.138;2024-01-15T14:25:33;2.80;;;0.67;;
76171;SDS011;64929;51.178;4.138;2024-01-15T14:27:59;3.90;;;0.53;;
76171;SDS011;64929;51.178;4.138;2024-01-15T14:30:25;2.83;;;0.60;;
76171;SDS011;64929;51.178;4.138;2024-01-15T14:32:51;2.80;;;0.80;;
76171;SDS011;64929;51.178;4.138;2024-01-15T14:35:16;1.90;;;0.80;;
76171;SDS011;64929;51.178;4.138;2024-01-15T14:37:42;4.53;;;0.65;;
76171;SDS011;64929;51.178;4.138;2024-01-15T14:40:08;1.70;;;0.53;;
76171;SDS011;64929;51.178;4.138;2024-01-15T14:42:35;2.40;;;0.60;;
76171;SDS011;64929;51.178;4.138;2024-01-15T14:45:01;3.45;;;0.57;;
76171;SDS011;64929;51.178;4.138;2024-01-15T14:47:36;2.80;;;0.90;;
76171;SDS011;64929;51.178;4.138;2024-01-15T14:50:06;2.47;;;0.87;;
76171;SDS011;64929;51.178;4.138;2024-01-15T14:52:32;6.70;;;0.90;;
76171;SDS011;64929;51.178;4.138;2024-01-15T14:54:58;4.13;;;0.53;;